Time;durP1;ratioP1;P1;durP2;ratioP2;P2;SDS_P1;SDS_P2;PMS_P1;PMS_P2;Temp;Humidity;BMP_temperature;BMP_pressure;BME280_temperature;BME280_humidity;BME280_pressure;Samples;Min_cycle;Max_cycle;Signal;HPM_P1;HPM_P2
2022/03/13 00:00:26;;;;;;;2.92;2.72;;;21.40;39.30;;;;;;5082980;28;44046;-61
2022/03/13 00:02:55;;;;;;;3.00;2.72;;;21.40;39.40;;;;;;5080533;28;43663;-60
2022/03/13 00:05:23;;;;;;;3.03;2.72;;;21.40;39.40;;;;;;5082668;27;43469;-60
2022/03/13 00:07:54;;;;;;;2.88;2.67;;;21.40;39.40;;;;;;5083025;28;43994;-61
2022/03/13 00:10:27;;;;;;;2.70;2.50;;;21.30;39.30;;;;;;5082972;28;44983;-61
2022/03/13 00:12:55;;;;;;;2.90;2.70;;;21.30;39.40;;;;;;5082901;27;43493;-61
2022/03/13 00:15:35;;;;;;;2.85;2.65;;;21.30;39.40;;;;;;5080331;28;43521;-61
2022/03/13 00:18:03;;;;;;;2.70;2.50;;;21.30;40.00;;;;;;5081525;28;44012;-61
2022/03/13 00:20:33;;;;;;;3.05;2.85;;;21.30;39.40;;;;;;5082740;27;43848;-61
2022/03/13 00:23:00;;;;;;;3.60;3.23;;;21.30;39.40;;;;;;5079840;27;43553;-61
2022/03/13 00:25:28;;;;;;;3.25;2.95;;;21.20;39.30;;;;;;5085832;27;43461;-60
2022/03/13 00:27:55;;;;;;;2.97;2.78;;;21.20;39.30;;;;;;5086527;27;43387;-62
2022/03/13 00:30:23;;;;;;;2.83;2.63;;;21.20;39.40;;;;;;5085678;27;44651;-61
2022/03/13 00:32:50;;;;;;;2.90;2.70;;;21.20;39.30;;;;;;5085826;27;43434;-61
2022/03/13 00:35:18;;;;;;;3.15;2.83;;;21.20;39.40;;;;;;5085782;28;43504;-60
2022/03/13 00:37:45;;;;;;;3.20;2.90;;;21.20;39.30;;;;;;5086181;28;43466;-61
2022/03/13 00:40:13;;;;;;;2.88;2.67;;;21.20;39.40;;;;;;5081412;28;44997;-61
2022/03/13 00:42:41;;;;;;;2.88;2.67;;;21.20;39.30;;;;;;5085362;28;43482;-61
2022/03/13 00:45:09;;;;;;;2.70;2.50;;;21.20;39.40;;;;;;5085821;28;43408;-61
2022/03/13 00:47:37;;;;;;;2.85;2.63;;;21.10;39.40;;;;;;5086255;28;43521;-61
2022/03/13 00:50:05;;;;;;;2.58;2.38;;;21.10;39.40;;;;;;5085787;27;43946;-60
2022/03/13 00:52:33;;;;;;;3.00;2.70;;;21.10;39.40;;;;;;5085538;27;43998;-61
2022/03/13 00:55:03;;;;;;;3.00;2.80;;;21.10;39.40;;;;;;5074231;28;43490;-60
2022/03/13 00:57:32;;;;;;;3.42;3.13;;;21.10;39.40;;;;;;5085891;27;43612;-60
2022/03/13 01:00:00;;;;;;;3.60;3.08;;;21.00;39.30;;;;;;5068349;28;44046;-60
2022/03/13 01:02:27;;;;;;;2.72;2.53;;;21.10;39.40;;;;;;5077616;28;44042;-60
2022/03/13 01:04:55;;;;;;;3.03;2.83;;;21.00;39.40;;;;;;5085694;27;43470;-61
2022/03/13 01:07:22;;;;;;;2.90;2.70;;;21.00;39.40;;;;;;5085728;28;43577;-61
2022/03/13 01:09:50;;;;;;;2.97;2.78;;;21.00;39.40;;;;;;5085637;27;43828;-60
2022/03/13 01:12:18;;;;;;;2.70;2.50;;;21.00;39.40;;;;;;5085459;27;43478;-60
2022/03/13 01:14:47;;;;;;;3.30;3.00;;;21.00;39.40;;;;;;5075782;27;43457;-61
2022/03/13 01:17:19;;;;;;;3.10;2.80;;;21.00;39.40;;;;;;5085781;27;43533;-60
2022/03/13 01:19:47;;;;;;;2.95;2.75;;;20.90;39.30;;;;;;5085019;27;43800;-61
2022/03/13 01:22:14;;;;;;;2.92;2.67;;;21.00;40.10;;;;;;5085375;27;43682;-61
2022/03/13 01:24:46;;;;;;;3.25;3.05;;;20.90;39.40;;;;;;5085454;27;43456;-61
2022/03/13 01:27:17;;;;;;;3.22;2.92;;;20.90;39.30;;;;;;5085932;27;43499;-61
2022/03/13 01:29:45;;;;;;;3.35;3.08;;;20.90;39.40;;;;;;5085362;27;43735;-60
2022/03/13 01:32:17;;;;;;;3.03;2.83;;;20.90;39.30;;;;;;5084987;27;43437;-61
2022/03/13 01:34:54;;;;;;;3.05;2.75;;;20.90;39.40;;;;;;5081484;27;43472;-61
2022/03/13 01:37:31;;;;;;;3.20;2.90;;;20.90;39.30;;;;;;5085548;27;43382;-60
2022/03/13 01:40:11;;;;;;;3.40;3.10;;;20.90;39.40;;;;;;5083530;28;44051;-61
2022/03/13 01:42:44;;;;;;;3.10;2.90;;;20.80;39.30;;;;;;5084863;27;43960;-61
2022/03/13 01:45:14;;;;;;;2.90;2.70;;;20.80;39.40;;;;;;5085150;27;43481;-60
2022/03/13 01:47:42;;;;;;;3.25;2.95;;;20.80;39.40;;;;;;5083645;28;43709;-61
2022/03/13 01:50:12;;;;;;;3.03;2.83;;;20.80;39.40;;;;;;5084990;27;43948;-61
2022/03/13 01:52:46;;;;;;;3.50;3.20;;;20.80;39.40;;;;;;5084295;27;43954;-61
2022/03/13 01:55:14;;;;;;;2.90;2.70;;;20.80;39.40;;;;;;5084408;28;43465;-61
2022/03/13 01:57:45;;;;;;;3.13;2.92;;;20.80;39.40;;;;;;5084868;28;43416;-61
2022/03/13 02:00:14;;;;;;;3.00;2.80;;;20.80;39.40;;;;;;5080592;28;44605;-60
2022/03/13 02:02:46;;;;;;;2.83;2.63;;;20.70;39.40;;;;;;5079849;28;43996;-60
2022/03/13 02:05:28;;;;;;;3.10;2.80;;;20.70;39.30;;;;;;5084494;27;43453;-61
2022/03/13 02:07:56;;;;;;;;;;;20.70;39.40;;;;;;5073745;28;43912;-60
2022/03/13 02:10:23;;;;;;;3.50;3.20;;;20.70;39.40;;;;;;5084840;27;44037;-60
2022/03/13 02:12:51;;;;;;;3.42;3.13;;;20.60;39.40;;;;;;5084541;27;43713;-60
2022/03/13 02:15:18;;;;;;;3.20;3.00;;;20.70;39.40;;;;;;5081908;28;43409;-61
2022/03/13 02:17:46;;;;;;;2.80;2.60;;;20.60;39.40;;;;;;5082212;28;43681;-61
2022/03/13 02:20:23;;;;;;;2.83;2.63;;;20.70;39.50;;;;;;5084206;27;44203;-61
2022/03/13 02:22:53;;;;;;;3.08;2.88;;;20.60;39.50;;;;;;5084174;27;43505;-60
2022/03/13 02:25:23;;;;;;;2.75;2.55;;;20.60;39.40;;;;;;5084255;27;43504;-61
2022/03/13 02:27:51;;;;;;;2.78;2.58;;;20.60;39.50;;;;;;5083314;28;43577;-61
2022/03/13 02:30:24;;;;;;;3.10;2.90;;;20.60;39.50;;;;;;5082624;28;45054;-60
2022/03/13 02:32:53;;;;;;;3.03;2.72;;;20.60;39.50;;;;;;5084050;27;44011;-61
2022/03/13 02:35:21;;;;;;;3.00;2.80;;;20.60;39.50;;;;;;5084059;28;43463;-61
2022/03/13 02:37:48;;;;;;;2.95;2.75;;;20.60;39.50;;;;;;5084600;28;43573;-61
2022/03/13 02:40:22;;;;;;;3.13;2.92;;;20.50;39.50;;;;;;5083615;27;44433;-61
2022/03/13 02:42:56;;;;;;;3.30;3.00;;;20.50;39.50;;;;;;5081252;28;43936;-60
2022/03/13 02:45:35;;;;;;;3.15;2.95;;;20.50;39.50;;;;;;5079178;28;43590;-60
2022/03/13 02:48:05;;;;;;;2.80;2.60;;;20.50;39.50;;;;;;5079253;28;43554;-61
2022/03/13 02:50:34;;;;;;;3.20;2.90;;;20.50;39.50;;;;;;5083478;28;44284;-60
2022/03/13 02:53:02;;;;;;;3.50;3.20;;;20.50;39.50;;;;;;5082440;28;43521;-60
2022/03/13 02:55:30;;;;;;;3.45;2.92;;;20.50;39.50;;;;;;5083567;27;43443;-60
2022/03/13 02:57:59;;;;;;;3.22;2.92;;;20.50;39.50;;;;;;5083943;27;43496;-61
2022/03/13 03:00:46;;;;;;;3.40;3.10;;;20.50;39.50;;;;;;5082827;28;43793;-60
2022/03/13 03:03:16;;;;;;;3.03;2.80;;;20.40;39.40;;;;;;5080408;27;44135;-61
2022/03/13 03:05:44;;;;;;;3.13;2.83;;;20.40;39.40;;;;;;5083668;28;43523;-61
2022/03/13 03:08:12;;;;;;;3.08;2.88;;;20.40;39.40;;;;;;5083616;28;43537;-60
2022/03/13 03:10:40;;;;;;;3.45;3.17;;;20.40;39.40;;;;;;5083646;27;45148;-61
2022/03/13 03:13:08;;;;;;;3.00;2.80;;;20.40;39.50;;;;;;5083520;27;43529;-60
2022/03/13 03:15:35;;;;;;;3.20;3.00;;;20.40;39.40;;;;;;5083525;28;43493;-61
2022/03/13 03:18:04;;;;;;;3.50;3.20;;;20.40;39.40;;;;;;5082493;28;43466;-61
2022/03/13 03:20:32;;;;;;;3.47;3.17;;;20.40;39.40;;;;;;5081237;28;44025;-61
2022/03/13 03:22:59;;;;;;;3.03;2.83;;;20.40;39.40;;;;;;5083481;27;43447;-60
2022/03/13 03:25:28;;;;;;;3.47;3.22;;;20.40;39.50;;;;;;5083577;27;43497;-61
2022/03/13 03:27:58;;;;;;;2.90;2.70;;;20.30;39.40;;;;;;5083589;27;43426;-61
2022/03/13 03:30:28;;;;;;;2.90;2.70;;;20.30;39.40;;;;;;5082561;28;44686;-61
2022/03/13 03:32:56;;;;;;;3.00;2.80;;;20.30;39.40;;;;;;5083561;27;43850;-60
2022/03/13 03:35:25;;;;;;;3.03;2.83;;;20.30;39.40;;;;;;5083365;28;43509;-61
2022/03/13 03:37:55;;;;;;;3.40;3.10;;;20.30;39.40;;;;;;5083329;28;43535;-61
2022/03/13 03:40:25;;;;;;;3.40;3.10;;;20.30;39.40;;;;;;5083325;28;43747;-60
2022/03/13 03:42:56;;;;;;;3.30;3.10;;;20.30;39.40;;;;;;5082764;28;43978;-61
2022/03/13 03:45:23;;;;;;;2.90;2.70;;;20.20;39.30;;;;;;5083178;27;43475;-61
2022/03/13 03:47:51;;;;;;;3.20;2.90;;;20.20;39.30;;;;;;5080970;28;43513;-62
2022/03/13 03:50:18;;;;;;;3.40;3.20;;;20.20;39.30;;;;;;5083260;27;44984;-60
2022/03/13 03:52:46;;;;;;;3.25;2.95;;;20.20;39.30;;;;;;5083372;27;43504;-61
2022/03/13 03:55:15;;;;;;;2.95;2.70;;;20.20;39.30;;;;;;5082806;27;43409;-61
2022/03/13 03:57:44;;;;;;;3.47;3.17;;;20.20;39.30;;;;;;5083252;27;43556;-62
2022/03/13 04:00:12;;;;;;;3.33;3.05;;;20.20;39.30;;;;;;5086254;28;44075;-60
2022/03/13 04:02:43;;;;;;;;;;;20.20;39.40;;;;;;5086914;27;43647;-60
2022/03/13 04:05:12;;;;;;;3.30;3.00;;;20.20;39.40;;;;;;5086413;27;43518;-60
2022/03/13 04:07:39;;;;;;;3.25;2.97;;;20.10;39.50;;;;;;5086026;28;43482;-60
2022/03/13 04:10:12;;;;;;;3.28;2.92;;;20.10;39.40;;;;;;5086023;27;44082;-60
2022/03/13 04:12:39;;;;;;;3.03;2.83;;;20.10;39.50;;;;;;5086278;27;43506;-61
2022/03/13 04:15:07;;;;;;;3.10;2.90;;;20.10;39.40;;;;;;5083818;28;43470;-60
2022/03/13 04:17:35;;;;;;;3.53;3.22;;;20.10;39.50;;;;;;5075425;28;43432;-60
2022/03/13 04:20:03;;;;;;;3.40;3.20;;;20.10;39.50;;;;;;5085693;28;44057;-61
2022/03/13 04:22:31;;;;;;;3.10;2.90;;;20.10;39.60;;;;;;5084801;28;44749;-61
2022/03/13 04:24:58;;;;;;;3.28;3.08;;;20.10;39.50;;;;;;5086203;28;43471;-61
2022/03/13 04:27:27;;;;;;;3.47;3.05;;;20.10;39.50;;;;;;5086663;28;43395;-61
2022/03/13 04:29:55;;;;;;;3.35;3.10;;;20.10;39.60;;;;;;5086072;27;44903;-61
2022/03/13 04:32:23;;;;;;;3.35;3.05;;;20.10;39.50;;;;;;5085814;28;43509;-61
2022/03/13 04:34:51;;;;;;;3.10;2.90;;;20.10;39.50;;;;;;5083661;28;43498;-61
2022/03/13 04:37:22;;;;;;;3.30;3.10;;;20.10;39.60;;;;;;5086372;27;43465;-61
2022/03/13 04:39:50;;;;;;;3.70;3.40;;;20.00;39.50;;;;;;5086193;28;43880;-60
2022/03/13 04:42:18;;;;;;;3.60;3.30;;;20.00;39.50;;;;;;5085386;28;43862;-60
2022/03/13 04:44:46;;;;;;;3.45;3.15;;;20.00;39.50;;;;;;5083602;28;43437;-61
2022/03/13 04:47:14;;;;;;;3.33;3.05;;;20.00;39.50;;;;;;5081360;28;43486;-61
2022/03/13 04:49:44;;;;;;;3.08;2.88;;;20.00;39.50;;;;;;5082420;28;45270;-61
2022/03/13 04:52:14;;;;;;;3.50;3.20;;;20.00;39.60;;;;;;5085173;28;43503;-61
2022/03/13 04:54:41;;;;;;;3.03;2.83;;;20.00;39.60;;;;;;5085418;27;43456;-61
2022/03/13 04:57:09;;;;;;;3.45;3.15;;;19.90;39.60;;;;;;5086168;27;43556;-60
2022/03/13 04:59:36;;;;;;;3.08;2.88;;;19.90;39.60;;;;;;5085838;28;43572;-61
2022/03/13 05:02:04;;;;;;;3.55;3.25;;;19.90;39.80;;;;;;5085586;28;43467;-61
2022/03/13 05:04:32;;;;;;;3.28;3.05;;;19.90;39.60;;;;;;5085683;27;43464;-61
2022/03/13 05:07:00;;;;;;;3.13;2.92;;;19.90;39.60;;;;;;5085453;28;43518;-61
2022/03/13 05:09:28;;;;;;;3.33;3.10;;;19.90;39.60;;;;;;5084252;27;44181;-60
2022/03/13 05:11:55;;;;;;;3.08;2.80;;;19.90;39.70;;;;;;5084470;27;43481;-61
2022/03/13 05:14:23;;;;;;;3.28;2.97;;;19.90;39.60;;;;;;5085394;27;43509;-61
2022/03/13 05:16:51;;;;;;;3.35;3.15;;;19.90;39.60;;;;;;5085634;27;43583;-61
2022/03/13 05:19:19;;;;;;;3.35;3.13;;;19.90;39.60;;;;;;5085024;27;44055;-61
2022/03/13 05:21:46;;;;;;;3.22;3.03;;;19.80;39.60;;;;;;5082070;28;43521;-61
2022/03/13 05:24:14;;;;;;;3.58;3.28;;;19.80;39.60;;;;;;5084829;27;43500;-61
2022/03/13 05:26:41;;;;;;;3.65;3.35;;;19.80;39.70;;;;;;5085356;27;44084;-60
2022/03/13 05:29:09;;;;;;;3.22;2.92;;;19.80;39.60;;;;;;5085374;27;44962;-61
2022/03/13 05:31:37;;;;;;;3.17;2.97;;;19.80;39.60;;;;;;5084857;27;43473;-61
2022/03/13 05:34:07;;;;;;;3.13;2.92;;;19.80;39.60;;;;;;5085310;27;43493;-61
2022/03/13 05:36:34;;;;;;;3.28;3.08;;;19.80;39.70;;;;;;5085356;27;43453;-61
2022/03/13 05:39:02;;;;;;;3.42;3.13;;;19.80;39.70;;;;;;5085344;27;43635;-61
2022/03/13 05:41:30;;;;;;;3.13;2.92;;;19.80;39.60;;;;;;5084859;27;43455;-61
2022/03/13 05:43:58;;;;;;;3.75;3.45;;;19.80;39.70;;;;;;5083648;27;43507;-58
2022/03/13 05:46:25;;;;;;;3.28;3.08;;;19.70;39.60;;;;;;5085048;27;43418;-59
2022/03/13 05:48:53;;;;;;;3.40;3.10;;;19.70;39.70;;;;;;5085019;28;44061;-59
2022/03/13 05:51:25;;;;;;;3.00;2.80;;;19.70;39.70;;;;;;5084753;27;44074;-59
2022/03/13 05:53:53;;;;;;;3.33;3.10;;;19.70;39.70;;;;;;5080010;28;43526;-58
2022/03/13 05:56:21;;;;;;;3.60;3.30;;;19.70;39.70;;;;;;5083462;28;43549;-59
2022/03/13 05:58:48;;;;;;;3.00;2.80;;;19.70;39.70;;;;;;5085047;28;43806;-59
2022/03/13 06:01:16;;;;;;;3.08;2.88;;;19.70;39.70;;;;;;5081515;28;43505;-59
2022/03/13 06:03:46;;;;;;;3.30;3.10;;;19.60;39.60;;;;;;5077668;28;43455;-58
2022/03/13 06:06:14;;;;;;;3.55;3.25;;;19.70;39.70;;;;;;5084473;28;43502;-60
2022/03/13 06:08:42;;;;;;;3.47;3.10;;;19.60;39.60;;;;;;5084956;27;44694;-59
2022/03/13 06:11:09;;;;;;;3.55;3.25;;;19.60;39.60;;;;;;5084218;27;43520;-59
2022/03/13 06:13:37;;;;;;;3.42;3.13;;;19.60;39.60;;;;;;5099704;27;43485;-59
2022/03/13 06:16:05;;;;;;;3.45;3.15;;;19.60;39.60;;;;;;5075818;28;43537;-59
2022/03/13 06:18:32;;;;;;;3.15;2.95;;;19.60;39.60;;;;;;5083047;28;44746;-59
2022/03/13 06:21:01;;;;;;;2.90;2.70;;;19.60;39.60;;;;;;5083494;27;43491;-59
2022/03/13 06:23:29;;;;;;;3.13;2.90;;;19.60;39.60;;;;;;5084460;28;43437;-59
2022/03/13 06:26:00;;;;;;;3.30;3.00;;;19.60;39.60;;;;;;5084503;28;43627;-59
2022/03/13 06:28:28;;;;;;;3.30;3.00;;;19.60;39.60;;;;;;5084599;27;44983;-59
2022/03/13 06:30:55;;;;;;;3.20;3.00;;;19.60;39.70;;;;;;5083032;28;44132;-59
2022/03/13 06:33:26;;;;;;;3.58;3.28;;;19.60;39.70;;;;;;5081302;28;43517;-59
2022/03/13 06:35:53;;;;;;;3.00;2.80;;;19.50;39.60;;;;;;5074981;27;43507;-59
2022/03/13 06:38:21;;;;;;;3.30;3.10;;;19.60;39.70;;;;;;5081319;28;44018;-58
2022/03/13 06:40:50;;;;;;;3.10;2.90;;;19.50;39.70;;;;;;5075301;28;43497;-59
2022/03/13 06:43:17;;;;;;;3.47;3.17;;;19.50;39.60;;;;;;5084082;28;43552;-58
2022/03/13 06:45:46;;;;;;;3.15;2.95;;;19.50;39.70;;;;;;5084305;27;43631;-58
2022/03/13 06:48:15;;;;;;;3.15;2.95;;;19.50;39.60;;;;;;5075395;28;44312;-59
2022/03/13 06:50:43;;;;;;;3.20;2.90;;;19.50;39.80;;;;;;5079472;28;43451;-59
2022/03/13 06:53:11;;;;;;;3.38;3.10;;;19.40;39.70;;;;;;5083239;28;43502;-59
2022/03/13 06:55:38;;;;;;;3.10;2.90;;;19.50;39.80;;;;;;5073940;27;43525;-59
2022/03/13 06:58:06;;;;;;;3.03;2.83;;;19.50;39.70;;;;;;5078726;28;44714;-59
2022/03/13 07:00:33;;;;;;;3.25;2.95;;;19.40;39.80;;;;;;5083598;28;43473;-59
2022/03/13 07:03:01;;;;;;;3.50;3.20;;;19.40;39.70;;;;;;5077738;27;43462;-59
2022/03/13 07:05:30;;;;;;;3.15;2.95;;;19.40;39.80;;;;;;5083719;28;43479;-59
2022/03/13 07:07:58;;;;;;;3.15;2.95;;;19.40;39.80;;;;;;5083412;27;44876;-59
2022/03/13 07:10:25;;;;;;;3.35;3.08;;;19.40;39.80;;;;;;5084037;27;43525;-59
2022/03/13 07:12:55;;;;;;;3.20;3.00;;;19.40;39.80;;;;;;5082745;28;43466;-59
2022/03/13 07:15:23;;;;;;;3.55;3.28;;;19.40;39.70;;;;;;5082159;28;43561;-59
2022/03/13 07:17:51;;;;;;;3.35;3.10;;;19.40;39.80;;;;;;5083132;28;44343;-60
2022/03/13 07:20:19;;;;;;;3.40;3.10;;;19.40;40.40;;;;;;5065345;28;43545;-59
2022/03/13 07:22:47;;;;;;;3.10;2.90;;;19.30;39.70;;;;;;5083568;27;43489;-58
2022/03/13 07:25:15;;;;;;;3.40;3.10;;;19.30;39.80;;;;;;5083614;28;43648;-59
2022/03/13 07:27:43;;;;;;;3.40;3.10;;;19.30;39.80;;;;;;5083437;27;43743;-59
2022/03/13 07:30:12;;;;;;;3.50;3.20;;;19.30;39.70;;;;;;5083275;27;43548;-59
2022/03/13 07:32:43;;;;;;;3.30;3.00;;;19.30;39.80;;;;;;5083746;27;43442;-59
2022/03/13 07:35:11;;;;;;;2.90;2.70;;;19.30;39.70;;;;;;5087175;27;43506;-59
2022/03/13 07:37:43;;;;;;;3.10;2.90;;;19.30;39.80;;;;;;5087099;28;44069;-59
2022/03/13 07:40:11;;;;;;;3.70;3.40;;;19.30;39.80;;;;;;5087402;27;43475;-59
2022/03/13 07:42:38;;;;;;;3.10;2.90;;;19.30;39.80;;;;;;5086798;27;43461;-59
2022/03/13 07:45:09;;;;;;;3.30;3.00;;;19.30;39.80;;;;;;5087154;27;43526;-59
2022/03/13 07:47:37;;;;;;;2.92;2.72;;;19.30;39.80;;;;;;5085963;28;44994;-59
2022/03/13 07:50:06;;;;;;;3.47;3.17;;;19.30;39.80;;;;;;5087144;27;43395;-59
2022/03/13 07:52:34;;;;;;;3.20;3.00;;;19.20;39.80;;;;;;5087058;27;43440;-59
2022/03/13 07:55:02;;;;;;;3.03;2.83;;;19.20;39.80;;;;;;5086576;27;43643;-59
2022/03/13 07:57:29;;;;;;;3.05;2.85;;;19.30;39.80;;;;;;5081456;28;44069;-59
2022/03/13 07:59:57;;;;;;;3.20;2.90;;;19.30;39.90;;;;;;5081415;27;43632;-59
2022/03/13 08:02:26;;;;;;;3.22;2.90;;;19.20;40.40;;;;;;5080000;28;43505;-59
2022/03/13 08:04:54;;;;;;;3.47;3.17;;;19.20;39.80;;;;;;5086520;27;43624;-59
2022/03/13 08:07:21;;;;;;;3.30;3.08;;;19.20;39.90;;;;;;5081023;28;44397;-59
2022/03/13 08:09:49;;;;;;;3.10;2.80;;;19.20;39.80;;;;;;5081252;28;43510;-61
2022/03/13 08:12:17;;;;;;;2.92;2.72;;;19.20;39.80;;;;;;5082591;28;43439;-61
2022/03/13 08:14:45;;;;;;;3.17;2.97;;;19.20;39.80;;;;;;5082043;28;43496;-61
2022/03/13 08:17:15;;;;;;;3.05;2.85;;;19.20;39.80;;;;;;5084707;27;43793;-59
2022/03/13 08:19:43;;;;;;;3.20;2.95;;;19.20;39.70;;;;;;5077340;28;43449;-60
2022/03/13 08:22:10;;;;;;;3.03;2.83;;;19.20;39.80;;;;;;5085920;27;43441;-59
2022/03/13 08:24:38;;;;;;;3.47;3.17;;;19.20;39.80;;;;;;5086601;27;43783;-59
2022/03/13 08:27:06;;;;;;;3.08;2.80;;;19.20;39.80;;;;;;5073220;27;44950;-60
2022/03/13 08:29:34;;;;;;;3.40;3.10;;;19.20;39.80;;;;;;5086444;28;43988;-60
2022/03/13 08:32:01;;;;;;;2.90;2.70;;;19.10;39.80;;;;;;5100924;27;43434;-59
2022/03/13 08:34:33;;;;;;;2.92;2.72;;;19.10;39.90;;;;;;5101478;27;43716;-59
2022/03/13 08:37:03;;;;;;;3.08;2.83;;;19.10;39.90;;;;;;5085390;28;45098;-60
2022/03/13 08:39:31;;;;;;;3.25;3.05;;;19.10;39.80;;;;;;5086318;27;43483;-59
2022/03/13 08:41:59;;;;;;;3.50;3.20;;;19.10;39.80;;;;;;5085734;27;43389;-60
2022/03/13 08:44:26;;;;;;;3.53;3.22;;;19.10;39.90;;;;;;5083806;27;43651;-59
2022/03/13 08:46:54;;;;;;;3.58;3.28;;;19.10;40.00;;;;;;5084406;28;45171;-59
2022/03/13 08:49:23;;;;;;;3.10;2.90;;;19.10;40.00;;;;;;5083140;28;43458;-59
2022/03/13 08:51:51;;;;;;;3.17;2.90;;;19.10;40.10;;;;;;5085971;27;43397;-59
2022/03/13 08:54:21;;;;;;;3.33;3.03;;;19.10;40.10;;;;;;5085422;28;43634;-59
2022/03/13 08:56:49;;;;;;;3.45;3.15;;;19.10;40.10;;;;;;5085600;28;44396;-59
2022/03/13 08:59:20;;;;;;;3.20;2.90;;;19.00;40.10;;;;;;5083268;28;43464;-60
2022/03/13 09:01:52;;;;;;;3.17;2.90;;;19.00;40.10;;;;;;5081327;28;43399;-60
2022/03/13 09:04:21;;;;;;;3.22;2.97;;;19.00;40.10;;;;;;5085618;27;43588;-60
2022/03/13 09:06:49;;;;;;;3.85;3.20;;;19.00;40.20;;;;;;5085430;27;44991;-59
2022/03/13 09:09:19;;;;;;;3.60;3.20;;;19.00;40.20;;;;;;5084235;28;44022;-59
2022/03/13 09:11:47;;;;;;;3.42;3.10;;;19.00;40.30;;;;;;5085707;27;43505;-60
2022/03/13 09:14:15;;;;;;;3.03;2.83;;;19.00;40.30;;;;;;5084504;28;43744;-60
2022/03/13 09:16:45;;;;;;;3.13;2.83;;;19.00;40.30;;;;;;5085463;27;45050;-59
2022/03/13 09:19:13;;;;;;;2.95;2.75;;;19.00;40.30;;;;;;5085080;27;43576;-59
2022/03/13 09:21:41;;;;;;;3.20;3.00;;;19.00;40.30;;;;;;5085491;27;43412;-60
2022/03/13 09:24:09;;;;;;;3.05;2.85;;;19.00;40.20;;;;;;5085027;27;43585;-60
2022/03/13 09:26:43;;;;;;;3.00;2.80;;;19.10;40.30;;;;;;5085240;27;44992;-59
2022/03/13 09:29:10;;;;;;;3.28;3.08;;;19.00;40.40;;;;;;5085237;27;43436;-59
2022/03/13 09:31:38;;;;;;;3.00;2.70;;;19.00;40.20;;;;;;5084762;28;43513;-59
2022/03/13 09:34:06;;;;;;;3.10;2.90;;;19.10;40.20;;;;;;5085203;27;43453;-60
2022/03/13 09:36:37;;;;;;;3.50;3.20;;;19.10;40.20;;;;;;5077822;27;44702;-60
2022/03/13 09:39:05;;;;;;;;;;;19.10;40.20;;;;;;5084724;27;43961;-60
2022/03/13 09:41:32;;;;;;;3.60;3.30;;;19.10;40.30;;;;;;5084319;27;43441;-60
2022/03/13 09:44:00;;;;;;;3.08;2.88;;;19.10;40.30;;;;;;5088602;27;43462;-59
2022/03/13 09:46:28;;;;;;;4.35;3.30;;;19.20;40.20;;;;;;5081908;27;43753;-59
2022/03/13 09:48:55;;;;;;;3.30;3.10;;;19.20;40.10;;;;;;5083870;27;44000;-60
2022/03/13 09:51:25;;;;;;;3.00;2.80;;;19.20;40.10;;;;;;5084102;27;43561;-60
2022/03/13 09:53:53;;;;;;;3.47;3.17;;;19.20;40.30;;;;;;5083811;27;43516;-61
2022/03/13 09:56:21;;;;;;;3.03;2.75;;;19.30;40.20;;;;;;5083427;27;43798;-60
2022/03/13 09:58:48;;;;;;;2.95;2.75;;;19.30;40.20;;;;;;5083366;27;44268;-61
2022/03/13 10:01:16;;;;;;;3.20;2.90;;;19.30;40.30;;;;;;5083809;27;43407;-60
2022/03/13 10:03:44;;;;;;;3.65;3.03;;;19.30;40.20;;;;;;5084166;27;43446;-61
2022/03/13 10:06:12;;;;;;;3.38;2.95;;;19.40;40.20;;;;;;5084071;27;43809;-61
2022/03/13 10:08:39;;;;;;;3.13;2.92;;;19.40;40.10;;;;;;5083590;27;44206;-61
2022/03/13 10:11:07;;;;;;;3.30;3.00;;;19.40;40.10;;;;;;5082985;27;43965;-61
2022/03/13 10:13:46;;;;;;;3.28;2.97;;;19.50;40.10;;;;;;5083322;27;43527;-61
2022/03/13 10:16:34;;;;;;;3.28;2.97;;;19.50;40.10;;;;;;5083440;27;44915;-60
2022/03/13 10:19:18;;;;;;;2.90;2.70;;;19.50;40.10;;;;;;5084193;27;44080;-60
2022/03/13 10:22:03;;;;;;;3.30;2.85;;;19.50;40.00;;;;;;5080444;27;43507;-61
2022/03/13 10:24:46;;;;;;;3.10;2.80;;;19.60;40.10;;;;;;5083148;27;43560;-61
2022/03/13 10:27:17;;;;;;;3.10;2.90;;;19.60;40.10;;;;;;5086754;27;44720;-60
2022/03/13 10:29:46;;;;;;;;;;;19.60;40.10;;;;;;5085478;27;43354;-61
2022/03/13 10:32:15;;;;;;;2.90;2.70;;;19.60;40.10;;;;;;5082169;27;43781;-60
2022/03/13 10:34:53;;;;;;;3.30;3.00;;;19.70;40.20;;;;;;5082056;27;44107;-61
2022/03/13 10:37:34;;;;;;;3.05;2.80;;;19.70;40.20;;;;;;5082424;27;43798;-60
2022/03/13 10:40:22;;;;;;;3.15;2.95;;;19.60;40.80;;;;;;5081680;27;43502;-61
2022/03/13 10:42:54;;;;;;;2.97;2.67;;;19.70;40.20;;;;;;5080082;27;43415;-60
2022/03/13 10:45:51;;;;;;;3.25;2.95;;;19.80;40.20;;;;;;5083165;27;43593;-61
2022/03/13 10:48:23;;;;;;;2.70;2.50;;;19.80;40.10;;;;;;5080118;27;44678;-61
2022/03/13 10:50:52;;;;;;;2.85;2.63;;;19.90;40.20;;;;;;5083225;27;43413;-61
2022/03/13 10:53:21;;;;;;;3.10;2.90;;;19.90;40.10;;;;;;5080710;27;43438;-61
2022/03/13 10:56:08;;;;;;;3.75;2.75;;;20.00;40.10;;;;;;5084286;27;43551;-61
2022/03/13 10:58:41;;;;;;;2.70;2.50;;;20.00;40.00;;;;;;5082973;27;43785;-61
2022/03/13 11:01:13;;;;;;;3.03;2.72;;;20.10;40.00;;;;;;5084464;27;43797;-61
2022/03/13 11:03:57;;;;;;;3.13;2.90;;;20.20;40.00;;;;;;5082730;27;43417;-61
2022/03/13 11:06:26;;;;;;;3.53;3.10;;;20.20;40.00;;;;;;5082756;27;43575;-61
2022/03/13 11:08:55;;;;;;;3.05;2.85;;;20.20;39.90;;;;;;5082302;27;43808;-61
2022/03/13 11:11:26;;;;;;;3.40;3.10;;;20.30;40.00;;;;;;5082509;27;43501;-61
2022/03/13 11:14:01;;;;;;;2.95;2.67;;;20.40;39.90;;;;;;5082612;27;43482;-60
2022/03/13 11:16:30;;;;;;;2.95;2.75;;;20.40;39.90;;;;;;5084350;27;43479;-61
2022/03/13 11:19:04;;;;;;;3.13;2.92;;;20.50;39.80;;;;;;5075188;27;45133;-61
2022/03/13 11:21:32;;;;;;;2.70;2.50;;;20.50;39.80;;;;;;5079133;27;43490;-61
2022/03/13 11:24:03;;;;;;;2.78;2.58;;;20.60;39.80;;;;;;5082074;27;43443;-61
2022/03/13 11:26:31;;;;;;;3.05;2.83;;;20.60;39.70;;;;;;5082407;27;44112;-61
2022/03/13 11:29:00;;;;;;;2.90;2.70;;;20.70;39.70;;;;;;5077786;27;43775;-60
2022/03/13 11:31:35;;;;;;;3.38;2.97;;;20.80;39.70;;;;;;5080187;27;43479;-61
2022/03/13 11:34:19;;;;;;;3.40;3.10;;;20.80;39.70;;;;;;5079836;27;43442;-61
2022/03/13 11:36:48;;;;;;;3.65;2.92;;;20.80;39.60;;;;;;5079337;27;43541;-61
2022/03/13 11:39:31;;;;;;;5.85;3.20;;;20.80;39.60;;;;;;5080671;27;44244;-60
2022/03/13 11:42:01;;;;;;;5.18;3.80;;;20.90;39.70;;;;;;5082432;27;43470;-59
2022/03/13 11:44:30;;;;;;;5.72;3.40;;;21.00;39.70;;;;;;5082177;27;43546;-60
2022/03/13 11:47:00;;;;;;;;;;;21.00;39.70;;;;;;5080078;27;43820;-61
2022/03/13 11:49:30;;;;;;;3.83;3.40;;;21.10;39.80;;;;;;5078902;27;44037;-60
2022/03/13 11:52:30;;;;;;;4.97;3.22;;;21.10;39.80;;;;;;5082053;27;43992;-61
2022/03/13 11:55:02;;;;;;;3.95;3.30;;;21.10;39.80;;;;;;5077022;27;43377;-60
2022/03/13 11:57:44;;;;;;;5.47;3.65;;;21.20;39.90;;;;;;5075130;27;43566;-60
2022/03/13 12:00:14;;;;;;;4.35;3.72;;;21.30;39.80;;;;;;5080626;27;44047;-61
2022/03/13 12:02:48;;;;;;;3.80;3.40;;;21.30;39.60;;;;;;5078995;27;43718;-61
2022/03/13 12:05:28;;;;;;;4.00;3.50;;;21.40;39.60;;;;;;5098857;27;43514;-60
2022/03/13 12:07:57;;;;;;;4.35;3.47;;;21.40;39.60;;;;;;5079739;27;43480;-61
2022/03/13 12:10:41;;;;;;;4.05;3.60;;;21.50;39.50;;;;;;5081094;27;44988;-60
2022/03/13 12:13:14;;;;;;;4.65;3.50;;;21.50;39.60;;;;;;5081400;27;43540;-60
2022/03/13 12:15:42;;;;;;;4.10;3.30;;;21.60;39.50;;;;;;5081088;27;43925;-60
2022/03/13 12:18:21;;;;;;;3.90;3.50;;;21.60;39.50;;;;;;5080955;27;43677;-61
2022/03/13 12:20:50;;;;;;;3.50;3.20;;;21.70;39.40;;;;;;5083833;27;43827;-60
2022/03/13 12:23:33;;;;;;;4.05;3.38;;;21.70;39.40;;;;;;5084767;27;43476;-61
2022/03/13 12:26:19;;;;;;;3.55;3.25;;;21.80;39.40;;;;;;5083713;27;43497;-60
2022/03/13 12:28:48;;;;;;;3.80;3.35;;;21.80;39.30;;;;;;5084745;27;44081;-61
2022/03/13 12:31:16;;;;;;;3.50;3.20;;;21.90;39.40;;;;;;5085190;27;43787;-60
2022/03/13 12:33:46;;;;;;;4.78;3.42;;;21.90;39.30;;;;;;5084348;27;43580;-61
2022/03/13 12:36:14;;;;;;;3.70;3.40;;;21.90;39.10;;;;;;5083530;27;43502;-60
2022/03/13 12:38:49;;;;;;;3.50;3.20;;;22.00;39.30;;;;;;5082298;27;43676;-60
2022/03/13 12:41:16;;;;;;;3.67;3.20;;;22.10;39.20;;;;;;5084882;27;44695;-59
2022/03/13 12:44:02;;;;;;;3.55;3.22;;;22.10;39.20;;;;;;5084266;27;43771;-60
2022/03/13 12:46:32;;;;;;;3.75;3.40;;;22.20;39.10;;;;;;5084180;27;43605;-60
2022/03/13 12:49:03;;;;;;;5.27;3.50;;;22.20;39.10;;;;;;5080298;27;43585;-60
2022/03/13 12:51:44;;;;;;;4.33;3.33;;;22.20;39.70;;;;;;5083380;27;43807;-60
2022/03/13 12:54:13;;;;;;;3.80;3.40;;;22.30;38.80;;;;;;5084460;27;43946;-60
2022/03/13 12:56:45;;;;;;;3.40;3.10;;;22.30;38.80;;;;;;5084827;27;43477;-60
2022/03/13 12:59:34;;;;;;;4.45;3.60;;;22.30;38.70;;;;;;5084214;27;44008;-60
2022/03/13 13:02:23;;;;;;;4.72;3.50;;;22.30;38.60;;;;;;5083404;27;44094;-60